Time;durP1;ratioP1;P1;durP2;ratioP2;P2;SDS_P1;SDS_P2;PMS_P1;PMS_P2;Temp;Humidity;BMP_temperature;BMP_pressure;BME280_temperature;BME280_humidity;BME280_pressure;Samples;Min_cycle;Max_cycle;Signal;HPM_P1;HPM_P2
2022/11/11 00:04:26;;;;;;;;;;;;;;;11.55;91.20801;102714.2;;;;-77
2022/11/11 00:04:39;;;;;;;11.8;3.7;;;;;;;;;;;;;-77
2022/11/11 00:09:26;;;;;;;;;;;;;;;11.57;91.0791;102717.4;;;;-78
2022/11/11 00:14:26;;;;;;;;;;;;;;;11.58;91.01465;102717.6;;;;-78
2022/11/11 00:29:25;;;;;;;;;;;;;;;11.56;90.8125;102715.4;;;;-79
2022/11/11 00:34:25;;;;;;;;;;;;;;;11.55;90.83203;102699.9;;;;-78
2022/11/11 00:35:51;;;;;;;11.4;4.1;;;;;;;;;;;;;-78
2022/11/11 00:39:31;;;;;;;;;;;;;;;11.53;90.94824;102708.4;;;;-77
2022/11/11 00:44:25;;;;;;;;;;;;;;;11.52;90.93555;102720.6;;;;-78
2022/11/11 00:54:28;;;;;;;;;;;;;;;11.47;90.90332;102727.3;;;;-77
2022/11/11 00:59:25;;;;;;;;;;;;;;;11.42;90.88379;102730.9;;;;-80
2022/11/11 01:04:25;;;;;;;;;;;;;;;11.38;91.02832;102745.8;;;;-74
2022/11/11 01:04:42;;;;;;;9.7;4.4;;;;;;;;;;;;;-75
2022/11/11 01:09:27;;;;;;;;;;;;;;;11.36;91.03418;102752.2;;;;-78
2022/11/11 01:14:25;;;;;;;;;;;;;;;11.35;91.18652;102758.8;;;;-78
2022/11/11 01:19:30;;;;;;;;;;;;;;;11.3;91.27832;102749.1;;;;-78
2022/11/11 01:24:26;;;;;;;;;;;;;;;11.28;91.22852;102735;;;;-78
2022/11/11 01:29:25;;;;;;;;;;;;;;;11.25;91.38867;102723.8;;;;-79
2022/11/11 01:34:26;;;;;;;;;;;;;;;11.21;91.38086;102728.3;;;;-78
2022/11/11 01:34:45;;;;;;;14.1;6.8;;;;;;;;;;;;;-78
2022/11/11 01:39:25;;;;;;;;;;;;;;;11.13;91.62695;102717.3;;;;-78
2022/11/11 01:44:36;;;;;;;;;;;;;;;11.06;91.60156;102713.1;;;;-78
2022/11/11 01:49:36;;;;;;;;;;;;;;;10.97;91.49609;102705.4;;;;-78
2022/11/11 01:54:27;;;;;;;;;;;;;;;10.9;91.89063;102708.2;;;;-78
2022/11/11 01:59:25;;;;;;;;;;;;;;;10.86;92.08008;102696.6;;;;-79
2022/11/11 02:09:27;;;;;;;;;;;;;;;10.78;92.0293;102704;;;;-78
2022/11/11 02:14:41;;;;;;;;;;;;;;;10.73;92.30664;102715.5;;;;-79
2022/11/11 02:19:35;;;;;;;;;;;;;;;10.7;92.15723;102721.9;;;;-78
2022/11/11 02:24:26;;;;;;;;;;;;;;;10.67;92.43652;102728;;;;-78
2022/11/11 02:29:26;;;;;;;;;;;;;;;10.64;92.40918;102747.7;;;;-78
2022/11/11 02:34:26;;;;;;;;;;;;;;;10.61;92.36816;102754.3;;;;-77
2022/11/11 02:34:45;;;;;;;16.6;8.6;;;;;;;;;;;;;-77
2022/11/11 02:39:25;;;;;;;;;;;;;;;10.6;92.51172;102749.2;;;;-79
2022/11/11 02:44:31;;;;;;;;;;;;;;;10.6;92.76465;102756.3;;;;-77
2022/11/11 02:49:26;;;;;;;;;;;;;;;10.57;92.58301;102760.3;;;;-76
2022/11/11 02:54:28;;;;;;;;;;;;;;;10.55;92.62109;102764.6;;;;-79
2022/11/11 02:59:25;;;;;;;;;;;;;;;10.57;92.93359;102766.8;;;;-79
2022/11/11 03:04:25;;;;;;;;;;;;;;;10.56;92.75293;102763.1;;;;-79
2022/11/11 03:04:46;;;;;;;19.3;9.8;;;;;;;;;;;;;-78
2022/11/11 03:09:25;;;;;;;;;;;;;;;10.56;92.9082;102768.1;;;;-79
2022/11/11 03:14:25;;;;;;;;;;;;;;;10.55;92.96289;102769;;;;-79
2022/11/11 03:19:26;;;;;;;;;;;;;;;10.54;92.98145;102775.5;;;;-78
2022/11/11 03:25:36;;;;;;;;;;;;;;;10.52;93.03418;102770.3;;;;-79
2022/11/11 03:29:25;;;;;;;;;;;;;;;10.52;93.23047;102760.9;;;;-78
2022/11/11 03:34:25;;;;;;;;;;;;;;;10.53;93.14648;102753.7;;;;-77
2022/11/11 03:34:47;;;;;;;22.6;10.4;;;;;;;;;;;;;-78
2022/11/11 03:39:25;;;;;;;;;;;;;;;10.52;93.33008;102755.2;;;;-79
2022/11/11 03:44:27;;;;;;;;;;;;;;;10.5;93.17188;102733.9;;;;-78
2022/11/11 03:49:25;;;;;;;;;;;;;;;10.47;93.11035;102736;;;;-78
2022/11/11 03:54:25;;;;;;;;;;;;;;;10.46;93.47266;102740.3;;;;-78
2022/11/11 03:59:25;;;;;;;;;;;;;;;10.44;93.38965;102741.2;;;;-78
2022/11/11 04:29:32;;;;;;;;;;;;;;;10.44;93.62109;102762.1;;;;-79
2022/11/11 04:34:26;;;;;;;;;;;;;;;10.43;93.55469;102767.1;;;;-79
2022/11/11 04:34:50;;;;;;;26.3;12;;;;;;;;;;;;;-79
2022/11/11 04:49:28;;;;;;;;;;;;;;;10.44;93.64258;102758.1;;;;-79
2022/11/11 04:54:28;;;;;;;;;;;;;;;10.43;93.54199;102763.5;;;;-78
2022/11/11 04:59:25;;;;;;;;;;;;;;;10.44;93.71094;102752.1;;;;-77
2022/11/11 05:04:25;;;;;;;;;;;;;;;10.43;93.6543;102751.5;;;;-78
2022/11/11 05:04:50;;;;;;;28.9;12.5;;;;;;;;;;;;;-78
2022/11/11 05:09:27;;;;;;;;;;;;;;;10.43;93.59863;102754.1;;;;-78
2022/11/11 05:29:25;;;;;;;;;;;;;;;10.42;93.60645;102749.8;;;;-79
2022/11/11 05:34:25;;;;;;;;;;;;;;;10.4;93.62598;102753.2;;;;-79
2022/11/11 05:34:51;;;;;;;22.6;11.3;;;;;;;;;;;;;-79
2022/11/11 05:39:25;;;;;;;;;;;;;;;10.36;93.72656;102753.6;;;;-79
2022/11/11 05:44:27;;;;;;;;;;;;;;;10.32;93.7168;102762.6;;;;-80
2022/11/11 05:49:25;;;;;;;;;;;;;;;10.3;93.70215;102762.9;;;;-80
2022/11/11 05:54:25;;;;;;;;;;;;;;;10.26;93.75977;102764.3;;;;-79
2022/11/11 05:59:25;;;;;;;;;;;;;;;10.24;94.15234;102763.1;;;;-78
2022/11/11 06:04:26;;;;;;;;;;;;;;;10.25;93.85742;102763;;;;-78
2022/11/11 06:04:53;;;;;;;28.3;12;;;;;;;;;;;;;-79
2022/11/11 06:09:25;;;;;;;;;;;;;;;10.25;94.11035;102768.4;;;;-78
2022/11/11 06:14:26;;;;;;;;;;;;;;;10.22;93.93945;102765.9;;;;-79
2022/11/11 06:19:25;;;;;;;;;;;;;;;10.19;93.97363;102763.2;;;;-78
2022/11/11 06:24:25;;;;;;;;;;;;;;;10.11;93.91602;102767;;;;-77
2022/11/11 06:29:25;;;;;;;;;;;;;;;10.07;93.72852;102769.1;;;;-78
2022/11/11 06:34:25;;;;;;;;;;;;;;;10.02;94.07031;102787.9;;;;-77
2022/11/11 06:34:55;;;;;;;23.7;12.3;;;;;;;;;;;;;-79
2022/11/11 06:39:25;;;;;;;;;;;;;;;10.01;94.22266;102794;;;;-78
2022/11/11 06:44:25;;;;;;;;;;;;;;;10.01;94.32422;102790.9;;;;-79
2022/11/11 06:49:25;;;;;;;;;;;;;;;9.96;93.89355;102797.1;;;;-78
2022/11/11 06:54:25;;;;;;;;;;;;;;;9.92;93.98535;102794.5;;;;-78
2022/11/11 06:59:25;;;;;;;;;;;;;;;9.86;94.21387;102796.5;;;;-79
2022/11/11 07:04:25;;;;;;;;;;;;;;;9.82;94.18164;102797.5;;;;-79
2022/11/11 07:04:54;;;;;;;24.8;12.2;;;;;;;;;;;;;-78
2022/11/11 07:09:27;;;;;;;;;;;;;;;9.76;94.40039;102792.1;;;;-79
2022/11/11 07:14:26;;;;;;;;;;;;;;;9.73;94.37305;102798.3;;;;-79
2022/11/11 07:19:25;;;;;;;;;;;;;;;9.7;94.21094;102811.9;;;;-78
2022/11/11 07:24:27;;;;;;;;;;;;;;;9.69;94.83594;102827.5;;;;-79
2022/11/11 07:29:25;;;;;;;;;;;;;;;9.68;94.77051;102847.2;;;;-79
2022/11/11 07:34:27;;;;;;;;;;;;;;;9.67;94.77734;102858.6;;;;-78
2022/11/11 07:34:55;;;;;;;25.6;12.7;;;;;;;;;;;;;-78
2022/11/11 07:39:25;;;;;;;;;;;;;;;9.72;94.93164;102861.2;;;;-79
2022/11/11 07:44:28;;;;;;;;;;;;;;;9.76;94.96191;102866.3;;;;-78
2022/11/11 07:49:25;;;;;;;;;;;;;;;9.82;94.99805;102865.7;;;;-80
2022/11/11 07:54:25;;;;;;;;;;;;;;;9.84;94.90234;102878.3;;;;-77
2022/11/11 07:59:25;;;;;;;;;;;;;;;9.86;94.70898;102884.5;;;;-79
2022/11/11 08:04:25;;;;;;;;;;;;;;;9.9;94.76074;102894.5;;;;-80
2022/11/11 08:04:56;;;;;;;28.5;12.6;;;;;;;;;;;;;-80
2022/11/11 08:09:25;;;;;;;;;;;;;;;9.95;94.40039;102902.6;;;;-80
2022/11/11 08:14:25;;;;;;;;;;;;;;;9.98;94.52539;102914.5;;;;-78
2022/11/11 08:19:30;;;;;;;;;;;;;;;10;94.55273;102921.6;;;;-77
2022/11/11 08:24:27;;;;;;;;;;;;;;;10.03;94.49316;102928.6;;;;-78
2022/11/11 08:29:28;;;;;;;;;;;;;;;10.08;94.19434;102929.5;;;;-78
2022/11/11 08:34:25;;;;;;;;;;;;;;;10.09;94.20703;102937.2;;;;-80
2022/11/11 08:34:57;;;;;;;25.5;12.5;;;;;;;;;;;;;-77
2022/11/11 08:39:25;;;;;;;;;;;;;;;10.15;93.95703;102930.6;;;;-79
2022/11/11 08:44:25;;;;;;;;;;;;;;;10.18;94.13867;102944.6;;;;-79
2022/11/11 08:49:25;;;;;;;;;;;;;;;10.21;94.0127;102953.3;;;;-79
2022/11/11 08:54:28;;;;;;;;;;;;;;;10.24;93.94141;102959.1;;;;-77
2022/11/11 08:59:28;;;;;;;;;;;;;;;10.27;93.88086;102965;;;;-78
2022/11/11 09:04:25;;;;;;;;;;;;;;;10.29;93.91797;102962.2;;;;-78
2022/11/11 09:04:58;;;;;;;25.6;13.2;;;;;;;;;;;;;-79
2022/11/11 09:09:26;;;;;;;;;;;;;;;10.34;93.75391;102964.5;;;;-77
2022/11/11 09:14:25;;;;;;;;;;;;;;;10.39;93.69922;102967.3;;;;-78
2022/11/11 09:19:29;;;;;;;;;;;;;;;10.43;93.40039;102969.7;;;;-79
2022/11/11 09:24:25;;;;;;;;;;;;;;;10.46;93.30566;102975.8;;;;-77
2022/11/11 09:29:25;;;;;;;;;;;;;;;10.49;93.24707;102982.2;;;;-79
2022/11/11 09:34:29;;;;;;;;;;;;;;;10.54;93.22559;102984.3;;;;-78
2022/11/11 09:34:59;;;;;;;26.7;13.5;;;;;;;;;;;;;-78
2022/11/11 09:39:25;;;;;;;;;;;;;;;10.58;93.12305;102987.6;;;;-81
2022/11/11 09:44:33;;;;;;;;;;;;;;;10.63;93.0791;102992.5;;;;-79
2022/11/11 09:49:34;;;;;;;;;;;;;;;10.69;92.79297;103000.5;;;;-78
2022/11/11 09:54:29;;;;;;;;;;;;;;;10.75;92.71875;103001.9;;;;-77
2022/11/11 09:59:33;;;;;;;;;;;;;;;10.8;92.73047;103003.6;;;;-78
2022/11/11 10:04:34;;;;;;;;;;;;;;;10.89;92.68262;103006.3;;;;-78
2022/11/11 10:05:03;;;;;;;27.4;13.5;;;;;;;;;;;;;-79
2022/11/11 10:09:28;;;;;;;;;;;;;;;10.95;92.1543;103009.3;;;;-79
2022/11/11 10:14:26;;;;;;;;;;;;;;;10.99;91.74414;103011;;;;-78
2022/11/11 10:19:31;;;;;;;;;;;;;;;11.07;91.76855;103009.1;;;;-78
2022/11/11 10:24:29;;;;;;;;;;;;;;;11.11;91.3916;103017;;;;-77
2022/11/11 10:29:30;;;;;;;;;;;;;;;11.16;91.4248;103018;;;;-79
2022/11/11 10:34:25;;;;;;;;;;;;;;;11.2;91.41113;103019.1;;;;-78
2022/11/11 10:35:09;;;;;;;26.7;13.8;;;;;;;;;;;;;-79
2022/11/11 10:39:27;;;;;;;;;;;;;;;11.22;91.27051;103016.7;;;;-79
2022/11/11 10:44:30;;;;;;;;;;;;;;;11.27;91.06152;103014.4;;;;-78
2022/11/11 10:49:27;;;;;;;;;;;;;;;11.32;91.23633;103016.6;;;;-79
2022/11/11 10:54:28;;;;;;;;;;;;;;;11.34;90.66699;103017.1;;;;-79
2022/11/11 10:59:27;;;;;;;;;;;;;;;11.38;90.34375;103015.8;;;;-79
2022/11/11 11:04:33;;;;;;;;;;;;;;;11.43;90.71973;103001.6;;;;-78
2022/11/11 11:05:07;;;;;;;28.4;14;;;;;;;;;;;;;-78
2022/11/11 11:09:32;;;;;;;;;;;;;;;11.49;90.37695;103002;;;;-78
2022/11/11 11:14:29;;;;;;;;;;;;;;;11.54;90.17676;103009.4;;;;-78
2022/11/11 11:19:26;;;;;;;;;;;;;;;11.58;89.90918;103006.6;;;;-78
2022/11/11 11:24:26;;;;;;;;;;;;;;;11.62;89.80566;103005.1;;;;-78
2022/11/11 11:29:32;;;;;;;;;;;;;;;11.64;89.63281;103001.7;;;;-78
2022/11/11 11:34:37;;;;;;;;;;;;;;;11.72;89.58301;103001.9;;;;-78
2022/11/11 11:35:02;;;;;;;26.1;13.4;;;;;;;;;;;;;-78
2022/11/11 11:39:34;;;;;;;;;;;;;;;11.79;89.375;103001;;;;-77
2022/11/11 11:44:43;;;;;;;;;;;;;;;11.82;88.94141;103000.6;;;;-78
2022/11/11 11:49:36;;;;;;;;;;;;;;;11.85;88.98047;103000.4;;;;-77
2022/11/11 11:54:37;;;;;;;;;;;;;;;11.86;88.65039;103000.8;;;;-78
2022/11/11 11:59:30;;;;;;;;;;;;;;;11.9;88.8125;103001.3;;;;-78
2022/11/11 12:04:32;;;;;;;;;;;;;;;11.93;88.47461;102995.8;;;;-78
2022/11/11 12:05:10;;;;;;;22.4;12.5;;;;;;;;;;;;;-78
2022/11/11 12:09:33;;;;;;;;;;;;;;;11.93;88.0332;103002.1;;;;-78
2022/11/11 12:14:41;;;;;;;;;;;;;;;11.95;87.9375;103003.5;;;;-77
2022/11/11 12:19:35;;;;;;;;;;;;;;;11.98;87.88574;103001.4;;;;-79
2022/11/11 12:24:34;;;;;;;;;;;;;;;12.01;88.07031;102993.2;;;;-78
2022/11/11 12:29:46;;;;;;;;;;;;;;;;;;;;;
2022/11/11 12:34:36;;;;;;;;;;;;;;;12.01;87.58301;102995;;;;-78
2022/11/11 12:35:16;;;;;;;22.9;12.3;;;;;;;;;;;;;-78
2022/11/11 12:39:39;;;;;;;;;;;;;;;11.98;87.38672;102994.2;;;;-78
2022/11/11 12:44:32;;;;;;;;;;;;;;;11.94;87.75879;102992.4;;;;-78
2022/11/11 12:49:40;;;;;;;;;;;;;;;11.98;87.53125;102989.3;;;;-78
2022/11/11 12:54:29;;;;;;;;;;;;;;;11.99;87.44824;103000.1;;;;-77
2022/11/11 12:59:32;;;;;;;;;;;;;;;12.03;87.27637;102999;;;;-74
2022/11/11 13:04:36;;;;;;;;;;;;;;;12;87.03809;102998.7;;;;-74
2022/11/11 13:05:10;;;;;;;19.7;11.1;;;;;;;;;;;;;-74
2022/11/11 13:09:32;;;;;;;;;;;;;;;11.99;87.14551;102994.1;;;;-78
2022/11/11 13:14:39;;;;;;;;;;;;;;;11.95;87.12891;102996.2;;;;-77
2022/11/11 13:19:28;;;;;;;;;;;;;;;11.94;87.31348;102997.6;;;;-76
2022/11/11 13:24:30;;;;;;;;;;;;;;;11.86;87.01074;103000.7;;;;-77
2022/11/11 13:29:37;;;;;;;;;;;;;;;11.88;87.20117;103005.3;;;;-78
2022/11/11 13:34:26;;;;;;;;;;;;;;;11.9;87.27344;103002.4;;;;-78
2022/11/11 13:35:13;;;;;;;22.2;10.9;;;;;;;;;;;;;-78
2022/11/11 13:39:37;;;;;;;;;;;;;;;11.96;87.32813;103008.2;;;;-78
2022/11/11 13:44:27;;;;;;;;;;;;;;;12;87.06055;103008.6;;;;-78
2022/11/11 13:49:36;;;;;;;;;;;;;;;12.03;86.99902;103004.6;;;;-79
2022/11/11 13:54:32;;;;;;;;;;;;;;;12.04;87.10254;103003.4;;;;-77
2022/11/11 13:59:28;;;;;;;;;;;;;;;12.09;87.03223;103000.5;;;;-78
2022/11/11 14:04:25;;;;;;;;;;;;;;;12.14;86.8125;103006.7;;;;-77
2022/11/11 14:05:27;;;;;;;22.8;11.4;;;;;;;;;;;;;-76
2022/11/11 14:09:36;;;;;;;;;;;;;;;12.18;86.8291;103003.4;;;;-78
2022/11/11 14:14:36;;;;;;;;;;;;;;;12.15;86.66992;103009.1;;;;-78
2022/11/11 14:19:38;;;;;;;;;;;;;;;12.11;86.7168;103007.2;;;;-78
2022/11/11 14:24:34;;;;;;;;;;;;;;;12.05;87.01563;103007.1;;;;-79
2022/11/11 14:29:33;;;;;;;;;;;;;;;12.03;86.86621;103004.8;;;;-78
2022/11/11 14:34:31;;;;;;;;;;;;;;;11.99;87.27051;103004.9;;;;-78
2022/11/11 14:35:24;;;;;;;20.3;11.1;;;;;;;;;;;;;-79
2022/11/11 14:39:35;;;;;;;;;;;;;;;11.95;87.0293;103002.5;;;;-78
2022/11/11 14:44:36;;;;;;;;;;;;;;;11.91;87.4541;103011;;;;-78
2022/11/11 14:49:38;;;;;;;;;;;;;;;11.88;87.86621;103011.7;;;;-78
2022/11/11 14:54:45;;;;;;;;;;;;;;;11.81;87.89746;103007.6;;;;-78
2022/11/11 14:59:26;;;;;;;;;;;;;;;11.76;88.07422;103007.6;;;;-78
2022/11/11 15:04:25;;;;;;;;;;;;;;;11.69;88.16113;103015.7;;;;-78
2022/11/11 15:05:17;;;;;;;19.7;10.5;;;;;;;;;;;;;-78
2022/11/11 15:09:35;;;;;;;;;;;;;;;11.62;88.71094;103007.1;;;;-78
2022/11/11 15:14:35;;;;;;;;;;;;;;;11.56;88.7998;102999.8;;;;-78
2022/11/11 15:19:36;;;;;;;;;;;;;;;11.48;88.91602;103003.6;;;;-76
2022/11/11 15:24:30;;;;;;;;;;;;;;;11.42;88.99121;103006.6;;;;-78
2022/11/11 15:29:33;;;;;;;;;;;;;;;11.34;89.26367;103004.6;;;;-79
2022/11/11 15:34:31;;;;;;;;;;;;;;;11.25;89.32227;103006.3;;;;-79
2022/11/11 15:35:22;;;;;;;19.4;10.1;;;;;;;;;;;;;-79
2022/11/11 15:39:30;;;;;;;;;;;;;;;11.19;89.45313;103010.2;;;;-77
2022/11/11 15:44:26;;;;;;;;;;;;;;;11.11;89.45898;103013;;;;-77
2022/11/11 15:49:39;;;;;;;;;;;;;;;11.01;89.20605;103021.9;;;;-77
2022/11/11 15:54:25;;;;;;;;;;;;;;;10.91;89.23047;103019.7;;;;-78
2022/11/11 15:59:26;;;;;;;;;;;;;;;10.81;89.50977;103021.4;;;;-77
2022/11/11 16:04:27;;;;;;;;;;;;;;;10.72;89.56836;103022.3;;;;-74
2022/11/11 16:05:18;;;;;;;16.8;8.6;;;;;;;;;;;;;-74
2022/11/11 16:09:27;;;;;;;;;;;;;;;10.65;89.62012;103024.8;;;;-74
2022/11/11 16:14:30;;;;;;;;;;;;;;;10.56;89.6543;103023.9;;;;-73
2022/11/11 16:19:29;;;;;;;;;;;;;;;10.49;89.74121;103026.3;;;;-73
2022/11/11 16:24:26;;;;;;;;;;;;;;;10.42;89.84863;103028.3;;;;-75
2022/11/11 16:29:26;;;;;;;;;;;;;;;10.35;89.96875;103030.6;;;;-74
2022/11/11 16:34:47;;;;;;;;;;;;;;;10.3;90.13184;103033.9;;;;-78
2022/11/11 16:35:24;;;;;;;13.9;7.4;;;;;;;;;;;;;-79
2022/11/11 16:39:29;;;;;;;;;;;;;;;10.25;90.05469;103038.5;;;;-78
2022/11/11 16:44:39;;;;;;;;;;;;;;;10.17;90.32617;103040;;;;-78
2022/11/11 16:49:31;;;;;;;;;;;;;;;10.09;90.39941;103035.2;;;;-78
2022/11/11 16:54:28;;;;;;;;;;;;;;;10.04;90.61719;103037.6;;;;-78
2022/11/11 16:59:29;;;;;;;;;;;;;;;9.99;90.67383;103046.5;;;;-77
2022/11/11 17:04:25;;;;;;;;;;;;;;;9.94;90.71973;103040.8;;;;-77
2022/11/11 17:05:14;;;;;;;13.8;6.2;;;;;;;;;;;;;-77
2022/11/11 17:09:42;;;;;;;;;;;;;;;9.89;90.69727;103045.3;;;;-77
2022/11/11 17:14:25;;;;;;;;;;;;;;;9.86;90.63672;103046.5;;;;-79
2022/11/11 17:19:25;;;;;;;;;;;;;;;9.79;90.86328;103044.8;;;;-78
2022/11/11 17:24:52;;;;;;;;;;;;;;;9.75;90.93359;103046.5;;;;-76
2022/11/11 17:29:25;;;;;;;;;;;;;;;9.7;90.72559;103053.8;;;;-78
2022/11/11 17:34:25;;;;;;;;;;;;;;;9.65;90.78027;103051;;;;-79
2022/11/11 17:35:15;;;;;;;10.6;5.5;;;;;;;;;;;;;-78
2022/11/11 17:39:25;;;;;;;;;;;;;;;9.58;90.87695;103050.1;;;;-78
2022/11/11 17:44:25;;;;;;;;;;;;;;;9.52;91.14941;103052.4;;;;-78
2022/11/11 17:49:25;;;;;;;;;;;;;;;9.48;91.15332;103056.1;;;;-78
2022/11/11 17:54:26;;;;;;;;;;;;;;;9.39;91.06836;103053.3;;;;-78
2022/11/11 17:59:25;;;;;;;;;;;;;;;9.34;91.0791;103062.1;;;;-77
2022/11/11 18:04:28;;;;;;;;;;;;;;;9.32;91.14063;103060.3;;;;-78
2022/11/11 18:05:24;;;;;;;12.3;5.5;;;;;;;;;;;;;-78
2022/11/11 18:09:45;;;;;;;;;;;;;;;9.26;91.06152;103061.6;;;;-78
2022/11/11 18:14:29;;;;;;;;;;;;;;;9.19;91.40918;103061.9;;;;-78
2022/11/11 18:19:35;;;;;;;;;;;;;;;9.15;91.19336;103080.5;;;;-77
2022/11/11 18:24:26;;;;;;;;;;;;;;;9.08;91.41992;103076.9;;;;-78
2022/11/11 18:29:27;;;;;;;;;;;;;;;9.06;91.36035;103077.7;;;;-78
2022/11/11 18:34:25;;;;;;;;;;;;;;;9.02;91.46289;103082.9;;;;-78
2022/11/11 18:35:17;;;;;;;13.1;6;;;;;;;;;;;;;-79
2022/11/11 18:39:29;;;;;;;;;;;;;;;8.99;91.24707;103083.9;;;;-79
2022/11/11 18:44:30;;;;;;;;;;;;;;;8.94;91.45703;103085.6;;;;-78
2022/11/11 18:49:32;;;;;;;;;;;;;;;8.94;91.63086;103082.7;;;;-79
2022/11/11 18:54:28;;;;;;;;;;;;;;;8.9;91.45801;103094.5;;;;-79
2022/11/11 18:59:25;;;;;;;;;;;;;;;8.9;91.30664;103106.3;;;;-78
2022/11/11 19:04:27;;;;;;;;;;;;;;;8.83;91.51953;103108.6;;;;-78
2022/11/11 19:05:18;;;;;;;12.9;6;;;;;;;;;;;;;-77
2022/11/11 19:14:41;;;;;;;;;;;;;;;8.78;91.60938;103105.7;;;;-78
2022/11/11 19:19:43;;;;;;;;;;;;;;;8.73;91.49902;103114.9;;;;-78
2022/11/11 19:29:33;;;;;;;;;;;;;;;8.67;91.45703;103112.3;;;;-77
2022/11/11 19:35:43;;;;;;;;;;;;;;;8.74;91.25;103112.1;;;;-78
2022/11/11 19:38:36;;;;;;;;;;;;;;;8.64;91.58008;103114.8;;;;-78
2022/11/11 19:43:30;;;;;;;;;;;;;;;8.58;91.52539;103116.8;;;;-79
2022/11/11 19:48:24;;;;;;;;;;;;;;;8.59;91.63477;103117.5;;;;-77
2022/11/11 19:58:42;;;;;;;;;;;;;;;8.54;91.92188;103133.5;;;;-78
2022/11/11 20:03:34;;;;;;;;;;;;;;;8.53;91.72266;103126;;;;-77
2022/11/11 20:05:29;;;;;;;14.1;7.2;;;;;;;;;;;;;-77
2022/11/11 20:13:44;;;;;;;;;;;;;;;8.5;91.58301;103130.7;;;;-78
2022/11/11 20:18:41;;;;;;;;;;;;;;;8.61;91.84961;103135.3;;;;-75
2022/11/11 20:21:43;;;;;;;;;;;;;;;8.49;91.50391;103132.1;;;;-79
2022/11/11 20:27:04;;;;;;;;;;;;;;;8.48;91.76758;103125.8;;;;-79
2022/11/11 20:31:55;;;;;;;;;;;;;;;8.55;91.85742;103140.5;;;;-79
2022/11/11 20:34:06;;;;;;;;;;;;;;;8.59;91.38477;103143.3;;;;-77
2022/11/11 20:35:32;;;;;;;16;7.3;;;;;;;;;;;;;-79
2022/11/11 20:42:33;;;;;;;;;;;;;;;8.4;91.7832;103138.7;;;;-79
2022/11/11 20:47:39;;;;;;;;;;;;;;;8.34;91.81348;103143.4;;;;-77
2022/11/11 20:52:33;;;;;;;;;;;;;;;8.31;91.86133;103160;;;;-78
2022/11/11 20:57:31;;;;;;;;;;;;;;;8.24;91.97949;103154.6;;;;-79
2022/11/11 21:02:39;;;;;;;;;;;;;;;8.23;92.24023;103157.9;;;;-79
2022/11/11 21:04:02;;;;;;;;;;;;;;;8.29;92.02148;103157.1;;;;-79
2022/11/11 21:05:22;;;;;;;13.1;6.7;;;;;;;;;;;;;-79
2022/11/11 21:07:06;;;;;;;;;;;;;;;8.18;92.09766;103149.8;;;;-80
2022/11/11 21:12:01;;;;;;;;;;;;;;;8.17;92.18262;103158;;;;-81
2022/11/11 21:17:03;;;;;;;;;;;;;;;8.16;91.98535;103167.3;;;;-78
2022/11/11 21:22:07;;;;;;;;;;;;;;;8.17;92.20508;103171.8;;;;-77
2022/11/11 21:27:00;;;;;;;;;;;;;;;8.11;92.21582;103170.1;;;;-79
2022/11/11 21:32:01;;;;;;;;;;;;;;;8.12;92.10547;103170.9;;;;-80
2022/11/11 21:35:23;;;;;;;13.1;6.6;;;;;;;;;;;;;-79
2022/11/11 21:37:00;;;;;;;;;;;;;;;8.08;92.40527;103169.9;;;;-79
2022/11/11 21:42:00;;;;;;;;;;;;;;;8.06;92.09668;103171.3;;;;-79
2022/11/11 21:47:01;;;;;;;;;;;;;;;8.01;92.49023;103187;;;;-79
2022/11/11 21:52:00;;;;;;;;;;;;;;;8;91.95117;103192.3;;;;-78
2022/11/11 21:57:06;;;;;;;;;;;;;;;7.96;92.17383;103198;;;;-78
2022/11/11 22:02:01;;;;;;;;;;;;;;;7.89;92.18066;103184.5;;;;-79
2022/11/11 22:05:19;;;;;;;14.7;6.7;;;;;;;;;;;;;-80
2022/11/11 22:07:00;;;;;;;;;;;;;;;7.85;92.21582;103195.9;;;;-78
2022/11/11 22:12:01;;;;;;;;;;;;;;;7.81;91.96582;103203.3;;;;-78
2022/11/11 22:17:01;;;;;;;;;;;;;;;7.74;92.05957;103195.4;;;;-79
2022/11/11 22:22:00;;;;;;;;;;;;;;;7.73;92.21094;103193.9;;;;-79
2022/11/11 22:27:01;;;;;;;;;;;;;;;7.68;92.24316;103192.5;;;;-79
2022/11/11 22:32:01;;;;;;;;;;;;;;;7.62;92.14453;103195.6;;;;-78
2022/11/11 22:35:22;;;;;;;11.6;5.7;;;;;;;;;;;;;-79
2022/11/11 22:37:01;;;;;;;;;;;;;;;7.57;91.85938;103194.4;;;;-79
2022/11/11 22:42:00;;;;;;;;;;;;;;;7.5;91.82324;103192.1;;;;-79
2022/11/11 22:47:01;;;;;;;;;;;;;;;7.45;91.89746;103196;;;;-78
2022/11/11 22:52:01;;;;;;;;;;;;;;;7.39;91.79004;103195.5;;;;-79
2022/11/11 22:57:01;;;;;;;;;;;;;;;7.29;91.73535;103199;;;;-79
2022/11/11 23:02:00;;;;;;;;;;;;;;;7.26;91.69531;103207.3;;;;-80
2022/11/11 23:05:23;;;;;;;9.9;5.8;;;;;;;;;;;;;-79
2022/11/11 23:07:01;;;;;;;;;;;;;;;7.17;91.92773;103208.9;;;;-80
2022/11/11 23:12:00;;;;;;;;;;;;;;;7.12;91.74316;103213.9;;;;-79
2022/11/11 23:17:03;;;;;;;;;;;;;;;7.09;92.05469;103214.6;;;;-79
2022/11/11 23:22:00;;;;;;;;;;;;;;;7.01;91.6084;103224.2;;;;-78
2022/11/11 23:27:03;;;;;;;;;;;;;;;7.01;91.86035;103218.3;;;;-78
2022/11/11 23:32:03;;;;;;;;;;;;;;;6.93;91.64648;103211;;;;-79
2022/11/11 23:35:20;;;;;;;10.2;5.4;;;;;;;;;;;;;-78
2022/11/11 23:37:00;;;;;;;;;;;;;;;6.89;91.46582;103211;;;;-79
2022/11/11 23:42:00;;;;;;;;;;;;;;;6.8;91.4248;103215.8;;;;-77
2022/11/11 23:47:02;;;;;;;;;;;;;;;6.72;91.43945;103203.3;;;;-79
2022/11/11 23:52:01;;;;;;;;;;;;;;;6.66;91.56836;103199.8;;;;-78
2022/11/11 23:57:00;;;;;;;;;;;;;;;6.63;91.45313;103199.1;;;;-78
